Time;durP1;ratioP1;P1;durP2;ratioP2;P2;SDS_P1;SDS_P2;PMS_P1;PMS_P2;Temp;Humidity;BMP_temperature;BMP_pressure;BME280_temperature;BME280_humidity;BME280_pressure;Samples;Min_cycle;Max_cycle;Signal;HPM_P1;HPM_P2
2023/02/22 00:01:34;;;;;;;7.73;5.50;;;16.30;69.80;;;;;;5039045;28;20196;-47
2023/02/22 00:04:13;;;;;;;8.77;6.30;;;16.30;69.80;;;;;;5050004;28;20190;-47
2023/02/22 00:06:45;;;;;;;8.37;6.13;;;16.30;69.60;;;;;;5063750;28;20686;-47
2023/02/22 00:09:22;;;;;;;8.70;5.80;;;16.30;69.80;;;;;;5038039;28;20817;-47
2023/02/22 00:11:54;;;;;;;7.57;5.90;;;16.30;69.60;;;;;;5060820;28;20220;-46
2023/02/22 00:14:26;;;;;;;8.50;6.03;;;16.30;69.50;;;;;;5066990;28;20198;-47
2023/02/22 00:17:15;;;;;;;7.03;5.80;;;16.30;69.50;;;;;;5066234;28;20210;-47
2023/02/22 00:19:47;;;;;;;7.33;5.60;;;16.30;69.60;;;;;;5067067;28;20201;-47
2023/02/22 00:22:17;;;;;;;9.10;6.23;;;16.30;69.50;;;;;;5061112;28;20683;-47
2023/02/22 00:24:49;;;;;;;8.47;6.40;;;16.30;69.40;;;;;;5070125;28;20227;-46
2023/02/22 00:27:19;;;;;;;9.13;7.30;;;16.30;69.40;;;;;;5067175;28;20650;-47
2023/02/22 00:30:06;;;;;;;7.80;6.20;;;16.30;69.30;;;;;;5064248;28;20221;-46
2023/02/22 00:32:56;;;;;;;8.73;6.23;;;16.30;69.30;;;;;;5065873;28;20225;-47
2023/02/22 00:35:33;;;;;;;9.97;6.40;;;16.30;69.30;;;;;;5037734;28;20209;-46
2023/02/22 00:38:04;;;;;;;8.53;6.40;;;16.30;69.40;;;;;;5053756;28;20267;-47
2023/02/22 00:40:34;;;;;;;8.90;7.13;;;16.30;69.40;;;;;;5076929;28;20182;-46
2023/02/22 00:43:05;;;;;;;8.37;5.93;;;16.20;69.90;;;;;;5067079;28;20209;-47
2023/02/22 00:45:36;;;;;;;8.27;6.33;;;16.20;69.30;;;;;;5053337;28;20334;-47
2023/02/22 00:48:05;;;;;;;7.67;6.23;;;16.20;69.60;;;;;;5042585;28;20213;-47
2023/02/22 00:50:33;;;;;;;9.07;6.30;;;16.30;69.30;;;;;;5064655;28;20205;-46
2023/02/22 00:53:04;;;;;;;7.77;6.47;;;16.20;69.40;;;;;;5064749;28;20194;-46
2023/02/22 00:55:34;;;;;;;8.20;5.80;;;16.20;69.30;;;;;;5034667;28;20721;-47
2023/02/22 00:58:02;;;;;;;8.33;6.27;;;16.30;69.50;;;;;;5043655;28;20221;-46
2023/02/22 01:00:40;;;;;;;7.67;5.63;;;16.30;69.40;;;;;;5049791;28;20190;-47
2023/02/22 01:03:17;;;;;;;8.33;6.17;;;16.30;69.40;;;;;;5050114;28;20200;-46
2023/02/22 01:05:48;;;;;;;7.30;5.73;;;16.20;69.40;;;;;;5066499;28;20208;-46
2023/02/22 01:08:24;;;;;;;8.10;6.10;;;16.20;69.50;;;;;;5066583;28;20200;-46
2023/02/22 01:10:56;;;;;;;8.40;5.83;;;16.20;69.30;;;;;;5067279;28;20254;-46
2023/02/22 01:13:25;;;;;;;8.50;6.07;;;16.20;70.00;;;;;;5069064;28;20677;-46
2023/02/22 01:15:59;;;;;;;7.70;5.90;;;16.20;69.50;;;;;;5051388;28;20202;-47
2023/02/22 01:18:30;;;;;;;9.63;6.13;;;16.20;69.40;;;;;;5066215;28;20247;-46
2023/02/22 01:21:00;;;;;;;8.10;6.37;;;16.30;69.40;;;;;;5069951;28;20184;-47
2023/02/22 01:23:31;;;;;;;8.93;6.40;;;16.30;69.40;;;;;;5052206;28;20205;-46
2023/02/22 01:26:04;;;;;;;7.93;6.07;;;16.20;69.30;;;;;;5072917;28;20225;-47
2023/02/22 01:28:36;;;;;;;7.57;5.90;;;16.20;69.40;;;;;;5053060;28;20619;-46
2023/02/22 01:31:06;;;;;;;8.67;7.20;;;16.20;69.30;;;;;;5046720;28;20566;-46
2023/02/22 01:33:38;;;;;;;8.97;6.60;;;16.20;69.20;;;;;;5054995;28;20198;-46
2023/02/22 01:36:10;;;;;;;8.50;6.27;;;16.20;69.10;;;;;;5046416;28;20278;-46
2023/02/22 01:38:42;;;;;;;8.50;7.20;;;16.20;69.30;;;;;;5076116;28;20236;-47
2023/02/22 01:41:17;;;;;;;9.00;7.13;;;16.20;69.10;;;;;;5070030;28;20189;-47
2023/02/22 01:43:48;;;;;;;9.60;7.13;;;16.20;69.20;;;;;;5070282;28;20216;-46
2023/02/22 01:46:28;;;;;;;9.80;6.90;;;16.20;69.10;;;;;;5063361;28;20219;-47
2023/02/22 01:49:04;;;;;;;9.00;6.80;;;16.20;69.00;;;;;;5071664;28;20200;-46
2023/02/22 01:51:51;;;;;;;8.53;6.90;;;16.20;69.10;;;;;;5076533;28;20818;-46
2023/02/22 01:54:32;;;;;;;10.63;7.50;;;16.10;69.10;;;;;;5051862;28;20670;-47
2023/02/22 01:57:04;;;;;;;7.83;6.00;;;16.10;69.20;;;;;;5058604;28;20232;-47
2023/02/22 02:00:09;;;;;;;9.07;6.90;;;16.20;69.10;;;;;;5061002;28;20294;-47
2023/02/22 02:02:47;;;;;;;8.63;6.50;;;16.20;69.10;;;;;;5069103;28;20260;-46
2023/02/22 02:05:39;;;;;;;9.13;6.97;;;16.20;69.10;;;;;;5054097;28;20194;-46
2023/02/22 02:08:38;;;;;;;7.93;6.27;;;16.10;69.10;;;;;;5050302;28;20479;-47
2023/02/22 02:11:09;;;;;;;7.77;6.50;;;16.10;69.20;;;;;;5059814;28;20267;-47
2023/02/22 02:13:42;;;;;;;7.57;6.33;;;16.10;69.20;;;;;;5056203;28;20212;-47
2023/02/22 02:16:14;;;;;;;8.10;6.50;;;16.10;69.20;;;;;;5049529;28;20209;-47
2023/02/22 02:18:43;;;;;;;8.40;6.20;;;16.10;69.30;;;;;;5060002;28;20575;-46
2023/02/22 02:21:55;;;;;;;7.30;6.50;;;16.10;69.20;;;;;;5072988;28;20538;-46
2023/02/22 02:24:50;;;;;;;8.47;6.33;;;16.10;69.30;;;;;;5003242;28;20198;-47
2023/02/22 02:27:30;;;;;;;8.90;7.10;;;16.10;69.20;;;;;;5050592;28;20671;-47
2023/02/22 02:30:24;;;;;;;8.07;6.17;;;16.10;69.20;;;;;;5056997;28;20213;-46
2023/02/22 02:33:30;;;;;;;7.90;6.07;;;16.10;69.30;;;;;;5057416;28;20229;-47
2023/02/22 02:36:17;;;;;;;7.60;6.27;;;16.10;69.30;;;;;;5041222;28;20205;-47
2023/02/22 02:39:19;;;;;;;7.47;6.53;;;16.10;69.30;;;;;;5064784;28;20228;-47
2023/02/22 02:41:50;;;;;;;8.60;5.80;;;16.10;69.20;;;;;;5051542;28;20274;-46
2023/02/22 02:44:53;;;;;;;7.57;5.53;;;16.10;69.40;;;;;;5068618;28;20201;-46
2023/02/22 02:47:28;;;;;;;7.63;6.10;;;16.10;69.30;;;;;;5051408;28;20240;-47
2023/02/22 02:50:24;;;;;;;6.43;5.47;;;16.10;69.40;;;;;;5061152;28;20294;-47
2023/02/22 02:53:03;;;;;;;7.90;5.90;;;16.10;69.40;;;;;;5050702;28;20205;-47
2023/02/22 02:55:35;;;;;;;7.73;6.60;;;16.10;69.30;;;;;;5046267;28;20276;-46
2023/02/22 02:58:05;;;;;;;8.90;5.67;;;16.10;69.50;;;;;;5044551;28;20684;-48
2023/02/22 03:00:39;;;;;;;7.90;6.13;;;16.10;69.40;;;;;;5047017;28;20217;-46
2023/02/22 03:03:13;;;;;;;7.73;6.53;;;16.10;69.30;;;;;;5064348;28;20745;-46
2023/02/22 03:06:18;;;;;;;7.60;6.73;;;16.10;69.30;;;;;;5054961;28;20198;-47
2023/02/22 03:09:19;;;;;;;7.37;6.20;;;16.10;69.10;;;;;;5054663;28;20204;-47
2023/02/22 03:12:31;;;;;;;7.73;5.93;;;16.10;69.20;;;;;;5065271;28;20670;-47
2023/02/22 03:15:38;;;;;;;7.27;5.77;;;16.10;69.40;;;;;;5013943;28;20251;-47
2023/02/22 03:18:21;;;;;;;7.70;6.03;;;16.00;69.20;;;;;;5004633;28;20401;-47
2023/02/22 03:21:02;;;;;;;7.33;6.37;;;16.00;69.40;;;;;;5013154;28;20749;-46
2023/02/22 03:24:01;;;;;;;7.33;5.77;;;16.00;69.30;;;;;;5013348;28;20274;-46
2023/02/22 03:26:42;;;;;;;8.37;5.90;;;16.00;69.10;;;;;;5014419;28;20559;-46
2023/02/22 03:29:19;;;;;;;7.33;5.83;;;16.00;69.20;;;;;;5013670;28;20281;-47
2023/02/22 03:32:00;;;;;;;7.40;5.80;;;16.00;69.40;;;;;;5010349;28;20211;-48
2023/02/22 03:34:36;;;;;;;8.37;5.90;;;16.00;69.30;;;;;;4986719;28;20212;-46
2023/02/22 03:37:16;;;;;;;7.63;6.33;;;16.00;69.30;;;;;;4998663;28;20683;-46
2023/02/22 03:39:48;;;;;;;7.10;5.57;;;16.00;69.30;;;;;;5082104;28;20181;-46
2023/02/22 03:42:36;;;;;;;7.80;5.77;;;16.00;69.20;;;;;;5070633;28;20617;-46
2023/02/22 03:45:14;;;;;;;7.90;6.37;;;16.00;69.20;;;;;;5067020;28;20200;-47
2023/02/22 03:47:56;;;;;;;7.47;6.10;;;16.10;69.40;;;;;;5086511;28;20204;-46
2023/02/22 03:50:47;;;;;;;6.97;5.70;;;16.00;69.30;;;;;;5070797;28;20647;-46
2023/02/22 03:53:29;;;;;;;7.60;5.87;;;16.00;69.20;;;;;;5082700;28;20204;-46
2023/02/22 03:56:04;;;;;;;6.97;6.10;;;16.00;69.10;;;;;;5085189;28;20189;-47
2023/02/22 03:58:39;;;;;;;7.37;5.60;;;16.00;69.20;;;;;;5071201;28;20236;-47
2023/02/22 04:01:08;;;;;;;8.83;6.10;;;16.00;69.20;;;;;;5069381;28;20224;-46
2023/02/22 04:03:36;;;;;;;6.97;5.87;;;16.00;69.20;;;;;;5086564;28;20425;-46
2023/02/22 04:06:17;;;;;;;9.80;6.17;;;16.00;69.00;;;;;;5080688;28;20192;-47
2023/02/22 04:08:49;;;;;;;7.20;5.93;;;16.00;69.10;;;;;;5093463;28;20199;-47
2023/02/22 04:11:19;;;;;;;7.23;5.93;;;16.10;69.00;;;;;;5084022;28;20201;-47
2023/02/22 04:13:47;;;;;;;8.17;5.90;;;16.00;68.80;;;;;;5087708;28;20494;-47
2023/02/22 04:16:15;;;;;;;8.57;6.17;;;16.00;68.80;;;;;;5085620;28;20205;-47
2023/02/22 04:18:49;;;;;;;7.87;6.47;;;16.00;68.90;;;;;;5070243;28;20213;-46
2023/02/22 04:21:20;;;;;;;7.77;6.40;;;16.00;68.80;;;;;;5093275;28;20192;-47
2023/02/22 04:23:49;;;;;;;8.97;6.87;;;16.00;68.90;;;;;;5084642;28;20631;-47
2023/02/22 04:26:19;;;;;;;8.03;6.53;;;16.00;68.90;;;;;;5075508;28;20259;-46
2023/02/22 04:28:50;;;;;;;8.07;6.47;;;16.00;68.90;;;;;;5054907;28;20223;-47
2023/02/22 04:31:23;;;;;;;8.17;6.50;;;16.00;68.90;;;;;;5049067;28;20262;-47
2023/02/22 04:33:55;;;;;;;7.67;6.03;;;16.00;68.90;;;;;;5065861;28;20299;-47
2023/02/22 04:36:27;;;;;;;9.17;7.27;;;16.00;68.90;;;;;;5059920;28;20604;-47
2023/02/22 04:39:01;;;;;;;7.83;6.63;;;16.00;69.00;;;;;;5050022;28;20228;-47
2023/02/22 04:41:30;;;;;;;7.80;6.33;;;16.00;68.90;;;;;;5068609;28;20585;-47
2023/02/22 04:44:01;;;;;;;6.40;5.47;;;16.00;68.90;;;;;;5064909;28;20739;-46
2023/02/22 04:46:30;;;;;;;8.30;6.13;;;16.00;68.90;;;;;;5060741;28;20228;-47
2023/02/22 04:49:09;;;;;;;7.80;6.23;;;16.00;68.90;;;;;;5061854;28;20193;-46
2023/02/22 04:51:40;;;;;;;8.30;7.20;;;16.00;68.90;;;;;;5045616;28;20193;-46
2023/02/22 04:54:12;;;;;;;10.77;6.40;;;16.00;68.90;;;;;;5068851;28;20480;-46
2023/02/22 04:56:45;;;;;;;8.90;6.83;;;16.00;68.90;;;;;;5054996;28;20197;-47
2023/02/22 04:59:16;;;;;;;7.33;5.80;;;16.00;68.90;;;;;;5068287;28;20242;-47
2023/02/22 05:01:48;;;;;;;9.33;7.33;;;16.00;68.70;;;;;;5067805;28;20229;-47
2023/02/22 05:04:17;;;;;;;7.93;6.77;;;16.00;68.80;;;;;;5063720;28;20217;-47
2023/02/22 05:06:58;;;;;;;8.50;6.87;;;16.00;68.70;;;;;;5073803;28;20663;-47
2023/02/22 05:09:27;;;;;;;8.83;7.37;;;16.00;68.70;;;;;;5071052;28;20205;-46
2023/02/22 05:11:59;;;;;;;9.07;7.00;;;15.90;68.70;;;;;;5061447;28;20217;-46
2023/02/22 05:14:32;;;;;;;9.03;6.57;;;15.90;68.80;;;;;;5072252;28;20197;-46
2023/02/22 05:17:04;;;;;;;9.00;7.47;;;16.00;68.70;;;;;;5072800;28;20625;-46
2023/02/22 05:19:34;;;;;;;8.10;7.07;;;16.00;68.60;;;;;;5051822;28;20233;-48
2023/02/22 05:22:06;;;;;;;10.00;7.70;;;16.00;68.60;;;;;;5076073;28;20193;-46
2023/02/22 05:24:36;;;;;;;8.00;7.13;;;15.90;68.70;;;;;;5069873;28;20204;-46
2023/02/22 05:27:07;;;;;;;9.60;7.47;;;15.90;68.70;;;;;;5082474;28;20220;-47
2023/02/22 05:29:37;;;;;;;10.77;7.20;;;15.90;68.80;;;;;;5090666;28;20529;-47
2023/02/22 05:32:11;;;;;;;8.20;6.80;;;15.90;68.80;;;;;;5082407;28;20204;-46
2023/02/22 05:34:43;;;;;;;9.50;7.23;;;15.90;68.60;;;;;;5077783;28;20221;-47
2023/02/22 05:37:15;;;;;;;8.80;7.47;;;15.90;68.70;;;;;;5093612;28;20197;-47
2023/02/22 05:39:45;;;;;;;9.00;6.63;;;15.90;69.40;;;;;;5095851;28;20570;-47
2023/02/22 05:42:15;;;;;;;7.97;6.47;;;15.90;68.80;;;;;;5088181;28;20193;-47
2023/02/22 05:44:50;;;;;;;8.80;6.27;;;16.00;69.20;;;;;;5090091;28;20283;-46
2023/02/22 05:47:21;;;;;;;10.37;6.23;;;15.90;68.90;;;;;;5085524;28;20203;-47
2023/02/22 05:49:51;;;;;;;9.23;7.00;;;15.90;68.90;;;;;;5087875;28;20196;-47
2023/02/22 05:52:20;;;;;;;8.57;6.73;;;15.90;68.90;;;;;;5100472;28;20685;-46
2023/02/22 05:54:50;;;;;;;8.13;6.77;;;15.90;68.90;;;;;;5090643;28;20196;-47
2023/02/22 05:57:21;;;;;;;10.10;7.40;;;15.90;68.80;;;;;;5086226;28;20255;-47
2023/02/22 05:59:52;;;;;;;9.57;6.97;;;15.90;68.60;;;;;;5083681;28;20274;-47
2023/02/22 06:02:27;;;;;;;8.60;6.73;;;15.90;68.60;;;;;;5088278;28;20196;-47
2023/02/22 06:04:58;;;;;;;9.23;6.77;;;15.90;68.60;;;;;;5090004;28;20206;-47
2023/02/22 06:07:29;;;;;;;9.67;7.67;;;15.90;68.60;;;;;;5088306;28;20213;-47
2023/02/22 06:09:57;;;;;;;9.07;6.80;;;15.90;68.60;;;;;;5090682;28;20202;-47
2023/02/22 06:12:29;;;;;;;9.53;7.83;;;15.90;68.40;;;;;;5089703;28;20492;-46
2023/02/22 06:15:02;;;;;;;10.07;7.40;;;15.90;68.30;;;;;;5090146;28;20238;-46
2023/02/22 06:17:31;;;;;;;13.23;7.77;;;15.90;68.30;;;;;;5089111;28;20568;-46
2023/02/22 06:20:02;;;;;;;9.77;7.67;;;15.90;68.20;;;;;;5094206;28;20709;-47
2023/02/22 06:22:44;;;;;;;10.70;7.97;;;15.90;68.10;;;;;;5080386;28;20209;-46
2023/02/22 06:25:39;;;;;;;10.80;8.53;;;15.90;67.90;;;;;;5077126;28;20286;-45
2023/02/22 06:28:30;;;;;;;10.77;7.93;;;15.90;67.90;;;;;;5033928;28;20205;-45
2023/02/22 06:31:11;;;;;;;12.67;9.37;;;15.90;67.70;;;;;;5077377;28;20205;-46
2023/02/22 06:33:39;;;;;;;9.90;8.40;;;15.90;67.50;;;;;;5064475;28;20201;-45
2023/02/22 06:36:09;;;;;;;9.93;8.33;;;15.90;67.90;;;;;;5079893;28;20238;-45
2023/02/22 06:38:39;;;;;;;11.30;8.37;;;15.90;67.40;;;;;;5069595;28;20267;-45
2023/02/22 06:41:10;;;;;;;10.93;8.43;;;15.90;67.40;;;;;;5075033;28;20190;-46
2023/02/22 06:43:40;;;;;;;10.50;7.87;;;15.90;67.40;;;;;;5068555;28;20607;-45
2023/02/22 06:46:11;;;;;;;10.97;8.23;;;15.90;67.30;;;;;;5083519;28;20196;-45
2023/02/22 06:48:41;;;;;;;10.97;7.90;;;15.90;67.30;;;;;;5047362;28;20216;-45
2023/02/22 06:51:13;;;;;;;12.07;8.23;;;15.90;67.60;;;;;;5058570;28;20232;-47
2023/02/22 06:53:44;;;;;;;10.43;8.27;;;15.90;67.40;;;;;;5063711;28;20189;-47
2023/02/22 06:56:15;;;;;;;12.13;8.83;;;15.90;67.30;;;;;;5060070;28;20198;-47
2023/02/22 06:58:50;;;;;;;11.77;8.70;;;15.90;67.30;;;;;;5069199;28;20210;-47
2023/02/22 07:01:21;;;;;;;11.90;8.47;;;15.90;67.60;;;;;;5069939;28;20209;-47
2023/02/22 07:03:53;;;;;;;11.80;9.10;;;15.90;67.50;;;;;;5067850;28;20243;-47
2023/02/22 07:06:23;;;;;;;10.97;8.63;;;15.90;67.40;;;;;;5055334;28;20192;-47
2023/02/22 07:08:54;;;;;;;16.20;10.03;;;15.90;67.80;;;;;;5062864;28;20198;-47
2023/02/22 07:11:23;;;;;;;14.13;10.40;;;15.90;67.70;;;;;;5072957;28;20189;-47
2023/02/22 07:13:51;;;;;;;13.97;9.80;;;15.90;67.70;;;;;;5046998;28;20213;-47
2023/02/22 07:16:20;;;;;;;12.40;9.47;;;15.90;67.40;;;;;;5068202;28;20240;-47
2023/02/22 07:19:02;;;;;;;13.83;9.90;;;15.90;67.30;;;;;;5078531;28;20304;-46
2023/02/22 07:21:34;;;;;;;13.30;9.80;;;15.90;67.40;;;;;;5033549;28;20193;-47
2023/02/22 07:24:05;;;;;;;14.03;9.70;;;15.90;67.40;;;;;;5063591;28;20193;-47
2023/02/22 07:26:40;;;;;;;12.97;9.60;;;15.90;67.40;;;;;;5078584;28;20241;-47
2023/02/22 07:29:10;;;;;;;12.63;9.40;;;15.90;67.30;;;;;;5079041;28;20239;-47
2023/02/22 07:31:40;;;;;;;13.17;9.73;;;15.90;67.40;;;;;;5089650;28;20606;-47
2023/02/22 07:34:13;;;;;;;13.50;9.23;;;15.90;67.20;;;;;;5085861;28;20624;-48
2023/02/22 07:36:44;;;;;;;12.50;9.53;;;15.90;67.30;;;;;;5083588;28;20378;-47
2023/02/22 07:39:15;;;;;;;14.33;10.43;;;15.90;67.20;;;;;;5087937;28;20566;-47
2023/02/22 07:41:48;;;;;;;12.23;9.13;;;15.90;67.10;;;;;;5082886;28;20951;-47
2023/02/22 07:44:17;;;;;;;11.23;9.00;;;15.90;67.20;;;;;;5083262;28;20191;-47
2023/02/22 07:46:49;;;;;;;13.03;10.53;;;15.90;67.20;;;;;;5078925;28;20317;-48
2023/02/22 07:49:22;;;;;;;12.20;9.40;;;15.90;68.00;;;;;;5067114;28;20216;-48
2023/02/22 07:51:54;;;;;;;12.50;8.77;;;15.90;67.20;;;;;;5082893;28;20197;-46
2023/02/22 07:54:22;;;;;;;11.90;9.17;;;16.00;67.60;;;;;;5088765;28;20201;-46
2023/02/22 07:56:55;;;;;;;14.60;9.57;;;15.90;67.50;;;;;;5086300;28;20619;-45
2023/02/22 07:59:24;;;;;;;14.03;9.63;;;15.90;66.90;;;;;;5088015;28;20630;-46
2023/02/22 08:01:55;;;;;;;11.77;9.27;;;16.00;66.90;;;;;;5067115;28;20213;-47
2023/02/22 08:04:24;;;;;;;14.03;9.90;;;15.90;66.60;;;;;;5088189;28;20635;-48
2023/02/22 08:06:55;;;;;;;13.90;9.53;;;15.90;66.80;;;;;;5086008;28;20200;-47
2023/02/22 08:09:23;;;;;;;13.27;9.63;;;15.90;66.60;;;;;;5087796;28;20204;-47
2023/02/22 08:11:52;;;;;;;13.83;9.80;;;15.90;66.50;;;;;;5080672;28;20181;-47
2023/02/22 08:14:20;;;;;;;11.90;9.40;;;15.90;66.70;;;;;;5087713;28;20229;-47
2023/02/22 08:16:52;;;;;;;12.17;8.73;;;15.90;66.60;;;;;;5087253;28;20208;-47
2023/02/22 08:19:26;;;;;;;12.43;9.53;;;15.90;66.70;;;;;;5084626;28;20215;-47
2023/02/22 08:21:56;;;;;;;12.47;9.23;;;15.90;66.80;;;;;;5083193;28;20212;-49
2023/02/22 08:24:24;;;;;;;10.40;7.60;;;15.90;66.60;;;;;;5084327;28;20212;-48
2023/02/22 08:26:56;;;;;;;12.70;8.87;;;15.90;66.90;;;;;;5086390;28;20553;-46
2023/02/22 08:29:32;;;;;;;13.13;9.07;;;15.90;66.90;;;;;;5086186;28;20211;-46
2023/02/22 08:32:01;;;;;;;12.33;9.07;;;15.90;66.90;;;;;;5084686;28;20201;-46
2023/02/22 08:34:32;;;;;;;10.97;8.93;;;15.90;66.90;;;;;;5073426;28;20629;-46
2023/02/22 08:37:01;;;;;;;10.83;8.30;;;15.90;66.70;;;;;;5065613;28;20224;-48
2023/02/22 08:39:29;;;;;;;11.07;8.13;;;15.90;66.60;;;;;;5086938;28;20216;-47
2023/02/22 08:41:59;;;;;;;11.10;9.13;;;15.90;66.80;;;;;;5084483;28;20204;-48
2023/02/22 08:44:31;;;;;;;9.60;7.90;;;15.90;66.80;;;;;;5087949;28;20810;-48
2023/02/22 08:47:01;;;;;;;10.13;8.33;;;15.90;67.00;;;;;;5080641;28;20878;-46
2023/02/22 08:49:32;;;;;;;9.67;8.00;;;15.90;66.90;;;;;;5083043;28;20250;-46
2023/02/22 08:52:04;;;;;;;11.87;8.87;;;15.90;66.90;;;;;;5048256;28;20207;-45
2023/02/22 08:54:36;;;;;;;10.60;8.50;;;15.90;67.00;;;;;;5079697;28;20208;-46
2023/02/22 08:57:07;;;;;;;11.00;8.80;;;15.90;66.90;;;;;;5085691;28;20209;-46
2023/02/22 08:59:37;;;;;;;11.83;8.63;;;15.90;66.80;;;;;;5087098;28;20541;-46
2023/02/22 09:02:12;;;;;;;9.60;8.30;;;15.90;66.70;;;;;;5080100;28;20216;-47
2023/02/22 09:04:40;;;;;;;16.13;8.50;;;15.90;66.60;;;;;;5084497;28;20630;-47
2023/02/22 09:07:11;;;;;;;11.97;9.37;;;15.90;66.60;;;;;;5086645;28;20185;-46
2023/02/22 09:09:44;;;;;;;8.93;7.33;;;15.90;66.70;;;;;;5068618;28;20217;-46
2023/02/22 09:12:13;;;;;;;10.30;8.50;;;15.90;66.80;;;;;;5059600;28;20232;-46
2023/02/22 09:14:41;;;;;;;10.87;9.07;;;15.90;66.60;;;;;;5056500;28;20212;-46
2023/02/22 09:17:13;;;;;;;11.70;8.87;;;15.90;66.40;;;;;;5083438;28;20201;-47
2023/02/22 09:19:44;;;;;;;10.77;8.63;;;15.90;66.50;;;;;;5054721;28;20245;-48
2023/02/22 09:22:16;;;;;;;9.57;7.80;;;16.00;66.40;;;;;;5065182;28;20548;-48
2023/02/22 09:24:48;;;;;;;11.03;8.23;;;16.00;66.40;;;;;;5080797;28;20197;-47
2023/02/22 09:27:18;;;;;;;10.80;8.63;;;16.00;66.40;;;;;;5081678;28;20264;-45
2023/02/22 09:29:49;;;;;;;8.60;7.60;;;16.00;66.30;;;;;;5084194;28;20193;-46
2023/02/22 09:32:22;;;;;;;9.70;7.57;;;16.00;66.40;;;;;;5081802;28;20203;-47
2023/02/22 09:34:54;;;;;;;9.70;8.67;;;16.00;66.20;;;;;;5067880;28;20200;-47
2023/02/22 09:37:26;;;;;;;8.90;7.87;;;16.00;66.20;;;;;;5069533;28;20224;-47
2023/02/22 09:39:58;;;;;;;9.00;7.57;;;16.00;66.20;;;;;;5086795;28;20217;-47
2023/02/22 09:42:33;;;;;;;9.13;7.70;;;16.00;66.20;;;;;;5089570;28;20723;-46
2023/02/22 09:45:23;;;;;;;8.90;7.67;;;16.00;66.20;;;;;;5076955;28;20519;-45
2023/02/22 09:48:02;;;;;;;10.70;7.83;;;16.00;66.00;;;;;;5082484;28;20234;-46
2023/02/22 09:50:51;;;;;;;9.53;7.80;;;16.00;66.10;;;;;;5074007;28;20209;-48
2023/02/22 09:53:34;;;;;;;63.70;18.77;;;16.00;66.10;;;;;;5071876;28;20594;-48
2023/02/22 09:56:11;;;;;;;69.07;20.37;;;16.10;66.30;;;;;;5083589;28;20185;-46
2023/02/22 09:58:52;;;;;;;62.90;18.97;;;16.00;66.80;;;;;;5075445;28;20205;-48
2023/02/22 10:01:57;;;;;;;50.97;16.80;;;16.10;67.40;;;;;;5046154;28;20682;-47
2023/02/22 10:05:04;;;;;;;49.43;16.10;;;16.30;67.90;;;;;;5028633;28;20200;-46
2023/02/22 10:07:54;;;;;;;45.73;15.00;;;16.40;68.00;;;;;;5093325;28;20195;-45
2023/02/22 10:10:32;;;;;;;32.53;12.87;;;16.40;67.80;;;;;;5068479;28;20189;-45
2023/02/22 10:13:26;;;;;;;33.13;13.30;;;16.50;68.00;;;;;;5076348;28;20244;-46
2023/02/22 10:16:40;;;;;;;29.47;12.00;;;16.50;67.80;;;;;;5084243;28;20208;-47
2023/02/22 10:19:28;;;;;;;28.73;11.30;;;16.60;67.80;;;;;;5045593;28;20595;-47
2023/02/22 10:22:36;;;;;;;26.13;12.00;;;16.70;67.30;;;;;;5085356;28;20212;-46
2023/02/22 10:25:33;;;;;;;26.00;10.27;;;16.80;67.10;;;;;;5085655;28;20213;-45
2023/02/22 10:28:47;;;;;;;25.77;11.37;;;16.90;67.00;;;;;;5058737;28;20209;-45
2023/02/22 10:31:29;;;;;;;18.13;9.97;;;16.90;66.80;;;;;;5086694;28;20539;-46
2023/02/22 10:34:04;;;;;;;17.90;9.87;;;17.00;66.40;;;;;;5067941;28;20647;-45
2023/02/22 10:36:37;;;;;;;19.40;9.50;;;17.00;66.90;;;;;;5051309;28;20224;-47
2023/02/22 10:39:32;;;;;;;19.70;8.70;;;17.10;66.10;;;;;;5088342;28;20248;-46
2023/02/22 10:42:06;;;;;;;19.57;9.17;;;17.10;66.00;;;;;;5068456;28;20197;-47
2023/02/22 10:44:37;;;;;;;14.70;7.97;;;17.20;65.70;;;;;;5071150;28;20193;-47
2023/02/22 10:47:13;;;;;;;15.57;8.20;;;17.20;65.50;;;;;;5058120;28;20190;-47
2023/02/22 10:49:52;;;;;;;19.70;8.40;;;17.30;65.10;;;;;;5080560;28;20638;-47
2023/02/22 10:52:32;;;;;;;12.70;8.03;;;17.30;64.90;;;;;;5067439;28;20277;-44
2023/02/22 10:55:11;;;;;;;14.23;7.50;;;17.40;65.00;;;;;;5071529;28;20197;-46
2023/02/22 10:57:46;;;;;;;11.50;7.73;;;17.50;64.70;;;;;;5080983;28;20259;-47
2023/02/22 11:00:36;;;;;;;11.00;6.83;;;17.50;64.50;;;;;;5065897;28;20244;-47
2023/02/22 11:03:22;;;;;;;13.27;7.63;;;17.50;64.70;;;;;;5075310;28;20205;-47
2023/02/22 11:05:52;;;;;;;17.00;7.73;;;17.50;64.70;;;;;;5093247;28;20193;-46
2023/02/22 11:08:28;;;;;;;9.97;6.33;;;17.50;64.40;;;;;;5089491;28;20705;-46
2023/02/22 11:11:23;;;;;;;10.03;6.53;;;17.60;64.50;;;;;;5073094;28;20200;-46
2023/02/22 11:13:55;;;;;;;11.87;7.33;;;17.60;64.20;;;;;;5063799;28;20355;-45
2023/02/22 11:16:51;;;;;;;9.57;6.73;;;17.70;64.10;;;;;;5068101;28;20196;-45
2023/02/22 11:19:27;;;;;;;9.27;6.23;;;17.70;63.00;;;;;;5089163;28;20216;-45
2023/02/22 11:22:17;;;;;;;10.13;6.03;;;17.70;62.60;;;;;;5085938;28;20184;-45
2023/02/22 11:24:59;;;;;;;10.10;6.83;;;17.60;62.70;;;;;;5084414;28;20204;-45
2023/02/22 11:27:43;;;;;;;10.77;6.43;;;17.60;62.30;;;;;;5052804;28;20241;-46
2023/02/22 11:30:34;;;;;;;9.30;6.60;;;17.60;62.20;;;;;;5033320;28;20242;-46
2023/02/22 11:33:28;;;;;;;10.10;6.37;;;17.60;62.00;;;;;;5064437;28;20319;-46
2023/02/22 11:36:25;;;;;;;8.03;5.73;;;17.50;61.60;;;;;;5060493;28;20283;-47
2023/02/22 11:39:33;;;;;;;9.87;6.37;;;17.50;61.90;;;;;;5060523;28;20225;-46
2023/02/22 11:42:22;;;;;;;8.60;6.77;;;17.50;62.10;;;;;;5064413;28;20201;-45
2023/02/22 11:45:15;;;;;;;7.23;6.43;;;17.50;62.10;;;;;;5061801;28;20658;-45
2023/02/22 11:47:54;;;;;;;7.60;5.97;;;17.50;62.40;;;;;;5046601;28;20264;-47
2023/02/22 11:51:10;;;;;;;8.47;6.57;;;17.40;62.90;;;;;;5067318;28;20289;-46
2023/02/22 11:54:08;;;;;;;8.07;6.10;;;17.40;62.80;;;;;;5056498;28;20649;-46
2023/02/22 11:57:22;;;;;;;6.63;5.37;;;17.40;62.90;;;;;;5057808;28;20208;-48
2023/02/22 12:00:23;;;;;;;7.60;6.00;;;17.30;62.90;;;;;;5065212;28;20232;-47
2023/02/22 12:03:47;;;;;;;7.17;6.10;;;17.30;63.40;;;;;;5060855;28;20201;-47
2023/02/22 12:07:03;;;;;;;7.80;6.33;;;17.30;63.40;;;;;;4981309;28;20208;-45
2023/02/22 12:10:12;;;;;;;7.20;5.60;;;17.30;63.40;;;;;;5063403;28;20232;-46
2023/02/22 12:13:10;;;;;;;8.10;6.03;;;17.30;63.60;;;;;;5060157;28;20881;-46
2023/02/22 12:15:47;;;;;;;6.90;6.13;;;17.30;64.10;;;;;;5066425;28;20212;-45
2023/02/22 12:18:40;;;;;;;7.03;5.73;;;17.20;64.00;;;;;;5065623;28;20220;-45
2023/02/22 12:21:28;;;;;;;8.40;6.30;;;17.20;63.90;;;;;;5065173;28;20245;-45
2023/02/22 12:24:21;;;;;;;8.30;6.43;;;17.20;64.00;;;;;;5060848;28;20221;-45
2023/02/22 12:27:00;;;;;;;7.97;5.57;;;17.20;64.10;;;;;;5064993;28;20237;-45
2023/02/22 12:29:56;;;;;;;8.17;6.27;;;17.20;64.00;;;;;;5058217;28;20601;-45
2023/02/22 12:32:42;;;;;;;6.60;5.83;;;17.20;64.40;;;;;;5062455;28;20217;-47
2023/02/22 12:35:39;;;;;;;6.20;5.43;;;17.10;64.20;;;;;;5044034;28;20208;-46
2023/02/22 12:38:45;;;;;;;8.87;6.27;;;17.20;64.60;;;;;;5034461;28;20213;-45
2023/02/22 12:41:47;;;;;;;7.37;6.20;;;17.20;64.50;;;;;;5070820;28;20228;-46
2023/02/22 12:44:42;;;;;;;6.33;5.60;;;17.20;64.70;;;;;;5065963;28;20221;-46
2023/02/22 12:47:18;;;;;;;7.63;6.17;;;17.10;64.60;;;;;;5066948;28;20213;-46
2023/02/22 12:50:04;;;;;;;7.20;5.70;;;17.20;64.50;;;;;;5064755;28;20205;-47
2023/02/22 12:52:54;;;;;;;6.67;5.73;;;17.20;64.60;;;;;;5046320;28;20206;-46
2023/02/22 12:55:50;;;;;;;6.90;5.97;;;17.10;64.60;;;;;;5065007;28;20197;-45
2023/02/22 12:59:01;;;;;;;7.27;5.70;;;17.20;64.80;;;;;;5067937;28;20298;-45
2023/02/22 13:01:39;;;;;;;6.70;6.00;;;17.20;64.90;;;;;;5064452;28;20245;-46
2023/02/22 13:04:12;;;;;;;6.90;5.73;;;17.20;64.90;;;;;;5050255;28;20203;-46
2023/02/22 13:07:17;;;;;;;8.93;5.80;;;17.20;64.80;;;;;;5071668;28;20224;-45
2023/02/22 13:10:22;;;;;;;6.77;5.87;;;17.10;65.00;;;;;;5070419;28;20202;-45
2023/02/22 13:13:25;;;;;;;6.20;5.60;;;17.20;65.20;;;;;;5071432;28;20213;-45
2023/02/22 13:16:23;;;;;;;6.27;5.53;;;17.10;65.20;;;;;;5069634;28;20193;-45
2023/02/22 13:19:16;;;;;;;7.43;5.90;;;17.20;65.20;;;;;;5071324;28;20570;-45
2023/02/22 13:21:52;;;;;;;5.97;5.37;;;17.20;65.20;;;;;;5073153;28;20191;-46
2023/02/22 13:24:36;;;;;;;12.30;5.23;;;17.20;65.40;;;;;;5034116;28;20208;-46
2023/02/22 13:27:20;;;;;;;7.53;5.33;;;17.20;65.80;;;;;;5063422;28;20229;-47
2023/02/22 13:30:02;;;;;;;8.23;4.97;;;17.20;66.30;;;;;;5047535;28;20185;-46
2023/02/22 13:33:00;;;;;;;12.47;5.87;;;17.20;66.90;;;;;;5055370;28;20497;-45
2023/02/22 13:35:34;;;;;;;12.37;5.20;;;17.30;66.70;;;;;;5059970;28;20205;-48
2023/02/22 13:38:35;;;;;;;10.93;5.30;;;17.30;67.00;;;;;;5045506;28;20271;-47
2023/02/22 13:41:50;;;;;;;12.87;5.27;;;17.30;66.80;;;;;;5076832;28;20308;-47
2023/02/22 13:44:56;;;;;;;12.80;5.53;;;17.30;67.10;;;;;;5068328;28;20216;-48